createdAt,value
2022-09-24T00:01:28.544Z,94467.03
2022-09-24T00:03:59.494Z,94447.81
2022-09-24T00:06:28.160Z,94458.09
2022-09-24T00:08:56.344Z,94466.53
2022-09-24T00:11:25.469Z,94471.91
2022-09-24T00:13:53.386Z,94453.03
2022-09-24T00:16:22.613Z,94452.50
2022-09-24T00:18:50.172Z,94433.47
2022-09-24T00:21:18.472Z,94446.03
2022-09-24T00:23:48.929Z,94450.22
2022-09-24T00:26:34.470Z,94413.63
2022-09-24T00:29:01.583Z,94422.06
2022-09-24T00:31:28.622Z,94439.25
2022-09-24T00:33:55.394Z,94451.13
2022-09-24T00:36:22.604Z,94464.41
2022-09-24T00:38:54.595Z,94456.63
2022-09-24T00:41:24.037Z,94463.59
2022-09-24T00:43:51.163Z,94453.09
2022-09-24T00:46:33.058Z,94454.63
2022-09-24T00:49:18.103Z,94439.47
2022-09-24T00:51:50.857Z,94452.28
2022-09-24T00:54:22.616Z,94452.31
2022-09-24T00:56:51.364Z,94449.97
2022-09-24T00:59:23.115Z,94458.00
2022-09-24T01:01:51.747Z,94437.34
2022-09-24T01:04:21.322Z,94443.34
2022-09-24T01:06:49.687Z,94451.53
2022-09-24T01:09:18.483Z,94449.41
2022-09-24T01:12:11.466Z,94444.88
2022-09-24T01:14:59.673Z,94429.75
2022-09-24T01:17:48.312Z,94439.03
2022-09-24T01:20:33.406Z,94434.38
2022-09-24T01:23:09.644Z,94425.84
2022-09-24T01:26:03.887Z,94426.59
2022-09-24T01:29:06.149Z,94429.22
2022-09-24T01:31:44.534Z,94431.16
2022-09-24T01:34:15.645Z,94423.47
2022-09-24T01:36:44.722Z,94424.97
2022-09-24T01:39:14.537Z,94420.41
2022-09-24T01:41:43.183Z,94414.56
2022-09-24T01:44:12.043Z,94410.66
2022-09-24T01:46:41.124Z,94417.63
2022-09-24T01:49:08.702Z,94397.31
2022-09-24T01:51:45.427Z,94393.56
2022-09-24T01:54:16.988Z,94392.78
2022-09-24T01:56:55.794Z,94375.59
2022-09-24T02:00:01.366Z,94359.84
2022-09-24T02:02:36.090Z,94387.72
2022-09-24T02:05:15.947Z,94380.34
2022-09-24T02:07:51.296Z,94395.44
2022-09-24T02:10:20.395Z,94397.03
2022-09-24T02:12:52.814Z,94392.38
2022-09-24T02:15:31.447Z,94387.72
2022-09-24T02:18:04.341Z,94388.09
2022-09-24T02:20:34.003Z,94381.88
2022-09-24T02:23:01.009Z,94380.22
2022-09-24T02:25:35.369Z,94352.13
2022-09-24T02:28:03.247Z,94374.50
2022-09-24T02:30:40.486Z,94361.97
2022-09-24T02:33:30.253Z,94381.88
2022-09-24T02:35:57.649Z,94381.06
2022-09-24T02:38:24.478Z,94372.56
2022-09-24T02:40:53.154Z,94368.66
2022-09-24T02:43:20.575Z,94365.09
2022-09-24T02:45:47.320Z,94358.91
2022-09-24T02:48:13.992Z,94360.47
2022-09-24T02:50:40.694Z,94354.09
2022-09-24T02:53:07.435Z,94358.91
2022-09-24T02:55:34.308Z,94343.59
2022-09-24T02:58:01.012Z,94356.53
2022-09-24T03:00:28.938Z,94358.91
2022-09-24T03:02:55.668Z,94357.59
2022-09-24T03:05:22.486Z,94360.09
2022-09-24T03:07:50.659Z,94335.66
2022-09-24T03:10:17.418Z,94340.28
2022-09-24T03:12:44.142Z,94338.06
2022-09-24T03:15:11.154Z,94362.44
2022-09-24T03:17:37.902Z,94348.41
2022-09-24T03:20:05.152Z,94352.34
2022-09-24T03:22:32.398Z,94348.81
2022-09-24T03:24:59.092Z,94358.94
2022-09-24T03:27:25.758Z,94360.84
2022-09-24T03:30:11.570Z,94351.16
2022-09-24T03:32:39.262Z,94343.72
2022-09-24T03:35:06.895Z,94328.00
2022-09-24T03:37:37.214Z,94321.75
2022-09-24T03:40:07.034Z,94311.94
2022-09-24T03:42:34.753Z,94334.41
2022-09-24T03:45:01.529Z,94334.06
2022-09-24T03:47:29.345Z,94361.06
2022-09-24T03:49:55.999Z,94349.84
2022-09-24T03:52:23.132Z,94330.56
2022-09-24T03:54:51.158Z,94330.50
2022-09-24T03:57:18.189Z,94314.94
2022-09-24T03:59:45.408Z,94329.59
2022-09-24T04:02:12.322Z,94322.25
2022-09-24T04:04:39.695Z,94335.44
2022-09-24T04:07:06.483Z,94318.47
2022-09-24T04:09:33.142Z,94302.81
2022-09-24T04:11:59.830Z,94294.25
2022-09-24T04:14:26.518Z,94300.19
2022-09-24T04:16:53.643Z,94311.75
2022-09-24T04:19:21.226Z,94299.38
2022-09-24T04:21:48.039Z,94316.91
2022-09-24T04:24:14.776Z,94313.19
2022-09-24T04:26:41.545Z,94302.75
2022-09-24T04:29:08.748Z,94298.59
2022-09-24T04:31:35.510Z,94288.56
2022-09-24T04:34:02.200Z,94280.47
2022-09-24T04:36:28.955Z,94279.91
2022-09-24T04:38:56.998Z,94279.97
2022-09-24T04:41:23.727Z,94288.09
2022-09-24T04:43:51.453Z,94271.81
2022-09-24T04:46:19.311Z,94278.78
2022-09-24T04:48:46.122Z,94257.03
2022-09-24T04:51:12.814Z,94257.44
2022-09-24T04:53:39.735Z,94266.78
2022-09-24T04:56:11.972Z,94275.25
2022-09-24T04:58:39.618Z,94284.16
2022-09-24T05:01:06.630Z,94279.09
2022-09-24T05:03:33.436Z,94295.66
2022-09-24T05:06:02.131Z,94291.16
2022-09-24T05:08:28.855Z,94297.69
2022-09-24T05:10:55.596Z,94287.28
2022-09-24T05:13:22.817Z,94299.84
2022-09-24T05:15:49.639Z,94293.78
2022-09-24T05:18:16.398Z,94300.50
2022-09-24T05:20:43.145Z,94303.25
2022-09-24T05:23:09.955Z,94293.63
2022-09-24T05:25:56.621Z,94293.78
2022-09-24T05:28:23.366Z,94277.66
2022-09-24T05:30:50.226Z,94297.28
2022-09-24T05:33:17.006Z,94300.72
2022-09-24T05:35:43.795Z,94284.84
2022-09-24T05:38:10.497Z,94282.03
2022-09-24T05:40:49.215Z,94260.94
2022-09-24T05:43:17.707Z,94298.13
2022-09-24T05:45:50.200Z,94317.63
2022-09-24T05:48:17.364Z,94304.59
2022-09-24T05:50:44.044Z,94285.63
2022-09-24T05:53:10.854Z,94291.78
2022-09-24T05:55:38.011Z,94289.63
2022-09-24T05:58:07.422Z,94292.38
2022-09-24T06:00:35.091Z,94270.66
2022-09-24T06:03:10.889Z,94292.31
2022-09-24T06:05:38.062Z,94294.00
2022-09-24T06:08:05.550Z,94303.25
2022-09-24T06:10:33.781Z,94308.63
2022-09-24T06:13:00.503Z,94306.31
2022-09-24T06:15:27.496Z,94313.72
2022-09-24T06:17:55.277Z,94311.44
2022-09-24T06:20:23.055Z,94283.47
2022-09-24T06:22:50.695Z,94291.41
2022-09-24T06:25:17.406Z,94299.66
2022-09-24T06:27:44.153Z,94282.84
2022-09-24T06:30:11.872Z,94292.53
2022-09-24T06:32:38.911Z,94302.78
2022-09-24T06:35:06.856Z,94300.69
2022-09-24T06:37:34.182Z,94307.94
2022-09-24T06:40:01.047Z,94307.41
2022-09-24T06:42:27.903Z,94302.41
2022-09-24T06:44:55.943Z,94293.94
2022-09-24T06:47:24.144Z,94289.44
2022-09-24T06:49:50.993Z,94257.19
2022-09-24T06:52:17.875Z,94268.59
2022-09-24T06:54:44.594Z,94302.94
2022-09-24T06:57:11.323Z,94295.34
2022-09-24T06:59:38.559Z,94317.25
2022-09-24T07:02:05.347Z,94280.22
2022-09-24T07:04:32.082Z,94291.06
2022-09-24T07:07:17.166Z,94306.75
2022-09-24T07:09:43.827Z,94290.66
2022-09-24T07:12:10.577Z,94315.34
2022-09-24T07:14:37.529Z,94314.66
2022-09-24T07:17:04.340Z,94322.88
2022-09-24T07:19:31.132Z,94297.69
2022-09-24T07:21:57.903Z,94301.69
2022-09-24T07:24:24.655Z,94310.59
2022-09-24T07:26:51.886Z,94320.13
2022-09-24T07:29:18.901Z,94307.31
2022-09-24T07:31:45.778Z,94310.94
2022-09-24T07:34:14.187Z,94320.16
2022-09-24T07:36:41.474Z,94318.34
2022-09-24T07:39:08.345Z,94295.88
2022-09-24T07:41:39.954Z,94305.69
2022-09-24T07:44:09.867Z,94324.75
2022-09-24T07:46:36.851Z,94336.66
2022-09-24T07:49:03.909Z,94321.28
2022-09-24T07:51:31.021Z,94338.91
2022-09-24T07:53:58.390Z,94333.91
2022-09-24T07:56:25.486Z,94349.59
2022-09-24T07:58:53.601Z,94323.97
2022-09-24T08:01:20.812Z,94338.44
2022-09-24T08:03:47.778Z,94324.88
2022-09-24T08:06:14.557Z,94322.16
2022-09-24T08:08:41.282Z,94352.81
2022-09-24T08:11:10.834Z,94332.69
2022-09-24T08:13:38.307Z,94344.72
2022-09-24T08:16:06.271Z,94343.56
2022-09-24T08:18:33.896Z,94348.25
2022-09-24T08:21:05.776Z,94333.25
2022-09-24T08:23:33.833Z,94339.31
2022-09-24T08:26:01.064Z,94358.88
2022-09-24T08:28:28.584Z,94366.41
2022-09-24T08:31:04.420Z,94355.47
2022-09-24T08:33:32.578Z,94350.03
2022-09-24T08:36:00.642Z,94348.53
2022-09-24T08:38:27.383Z,94350.97
2022-09-24T08:41:12.279Z,94344.06
2022-09-24T08:44:05.700Z,94312.16
2022-09-24T08:47:11.244Z,94319.66
2022-09-24T08:49:45.474Z,94329.47
2022-09-24T08:52:35.708Z,94356.56
2022-09-24T08:55:10.225Z,94356.75
2022-09-24T08:57:56.000Z,94344.72
2022-09-24T09:00:22.858Z,94354.03
2022-09-24T09:03:01.551Z,94350.84
2022-09-24T09:05:59.545Z,94372.22
2022-09-24T09:09:07.542Z,94362.75
2022-09-24T09:11:36.963Z,94376.03
2022-09-24T09:14:17.727Z,94355.03
2022-09-24T09:17:09.806Z,94354.25
2022-09-24T09:19:38.018Z,94348.09
2022-09-24T09:22:14.497Z,94333.88
2022-09-24T09:24:57.539Z,94368.09
2022-09-24T09:27:27.207Z,94399.59
2022-09-24T09:29:59.822Z,94391.97
2022-09-24T09:32:48.338Z,94377.19
2022-09-24T09:35:29.799Z,94362.22
2022-09-24T09:38:19.096Z,94382.47
2022-09-24T09:41:11.186Z,94411.28
2022-09-24T09:43:38.444Z,94411.34
2022-09-24T09:46:18.487Z,94385.03
2022-09-24T09:48:48.591Z,94403.78
2022-09-24T09:51:22.802Z,94393.63
2022-09-24T09:54:01.687Z,94397.84
2022-09-24T09:56:43.944Z,94396.50
2022-09-24T09:59:13.708Z,94416.75
2022-09-24T10:01:43.318Z,94388.56
2022-09-24T10:04:42.987Z,94382.47
2022-09-24T10:07:17.205Z,94391.66
2022-09-24T10:09:45.564Z,94373.09
2022-09-24T10:12:22.193Z,94389.34
2022-09-24T10:15:19.210Z,94384.88
2022-09-24T10:17:48.923Z,94380.13
2022-09-24T10:20:27.510Z,94391.19
2022-09-24T10:22:59.193Z,94406.78
2022-09-24T10:25:28.645Z,94366.84
2022-09-24T10:28:25.363Z,94396.56
2022-09-24T10:30:59.286Z,94409.03
2022-09-24T10:33:27.655Z,94373.03
2022-09-24T10:36:23.209Z,94393.13
2022-09-24T10:39:09.541Z,94402.50
2022-09-24T10:41:36.575Z,94383.22
2022-09-24T10:44:09.336Z,94400.19
2022-09-24T10:46:49.594Z,94389.78
2022-09-24T10:49:35.339Z,94406.94
2022-09-24T10:52:10.444Z,94377.28
2022-09-24T10:54:56.281Z,94382.03
2022-09-24T10:57:41.974Z,94384.41
2022-09-24T11:00:23.695Z,94394.47
2022-09-24T11:03:09.465Z,94407.31
2022-09-24T11:05:42.954Z,94392.94
2022-09-24T11:08:31.109Z,94400.09
2022-09-24T11:11:24.983Z,94401.66
2022-09-24T11:14:16.643Z,94430.53
2022-09-24T11:16:43.288Z,94399.47
2022-09-24T11:19:25.792Z,94397.88
2022-09-24T11:22:21.786Z,94404.47
2022-09-24T11:24:54.719Z,94432.66
2022-09-24T11:27:40.183Z,94420.31
2022-09-24T11:30:12.506Z,94388.63
2022-09-24T11:33:01.705Z,94412.06
2022-09-24T11:35:37.399Z,94409.53
2022-09-24T11:38:14.418Z,94399.94
2022-09-24T11:40:56.538Z,94396.72
2022-09-24T11:43:39.015Z,94368.72
2022-09-24T11:46:14.899Z,94382.56
2022-09-24T11:49:20.581Z,94396.34
2022-09-24T11:52:01.639Z,94378.66
2022-09-24T11:54:58.028Z,94348.22
2022-09-24T11:57:41.590Z,94367.16
2022-09-24T12:00:17.903Z,94401.56
2022-09-24T12:02:51.058Z,94399.06
2022-09-24T12:05:45.302Z,94410.97
2022-09-24T12:08:38.189Z,94389.88
2022-09-24T12:11:07.958Z,94380.56
2022-09-24T12:14:12.438Z,94390.84
2022-09-24T12:16:44.344Z,94401.16
2022-09-24T12:19:32.068Z,94384.16
2022-09-24T12:22:02.035Z,94368.25
2022-09-24T12:24:39.699Z,94405.78
2022-09-24T12:27:15.507Z,94393.88
2022-09-24T12:30:13.803Z,94409.78
2022-09-24T12:33:05.465Z,94408.63
2022-09-24T12:36:13.809Z,94402.75
2022-09-24T12:39:00.787Z,94374.47
2022-09-24T12:41:33.723Z,94358.38
2022-09-24T12:44:14.386Z,94376.59
2022-09-24T12:46:52.011Z,94361.75
2022-09-24T12:49:24.844Z,94368.50
2022-09-24T12:51:56.811Z,94346.16
2022-09-24T12:54:34.115Z,94375.53
2022-09-24T12:57:25.283Z,94394.63
2022-09-24T13:00:01.107Z,94373.44
2022-09-24T13:02:31.915Z,94387.47
2022-09-24T13:05:01.737Z,94357.44
2022-09-24T13:07:35.651Z,94370.91
2022-09-24T13:10:33.051Z,94366.50
2022-09-24T13:13:00.637Z,94350.50
2022-09-24T13:15:37.566Z,94335.25
2022-09-24T13:18:08.996Z,94342.41
2022-09-24T13:20:38.079Z,94331.88
2022-09-24T13:23:20.505Z,94348.25
2022-09-24T13:26:03.789Z,94345.25
2022-09-24T13:28:51.448Z,94332.91
2022-09-24T13:31:22.967Z,94340.31
2022-09-24T13:33:54.980Z,94345.50
2022-09-24T13:36:40.595Z,94350.25
2022-09-24T13:39:20.381Z,94352.78
2022-09-24T13:42:25.986Z,94336.28
2022-09-24T13:44:57.117Z,94312.13
2022-09-24T13:47:26.722Z,94365.00
2022-09-24T13:50:03.223Z,94350.41
2022-09-24T13:52:36.075Z,94321.78
2022-09-24T13:55:18.541Z,94351.00
2022-09-24T13:57:46.548Z,94354.53
2022-09-24T14:00:14.252Z,94327.50
2022-09-24T14:02:41.439Z,94321.59
2022-09-24T14:05:16.898Z,94326.34
2022-09-24T14:07:54.231Z,94295.75
2022-09-24T14:10:22.836Z,94314.03
2022-09-24T14:12:59.952Z,94328.47
2022-09-24T14:15:26.651Z,94328.69
2022-09-24T14:17:59.706Z,94346.94
2022-09-24T14:20:33.258Z,94330.88
2022-09-24T14:23:01.223Z,94344.44
2022-09-24T14:25:35.270Z,94299.69
2022-09-24T14:28:04.727Z,94287.41
2022-09-24T14:30:33.854Z,94298.00
2022-09-24T14:33:05.054Z,94328.16
2022-09-24T14:35:33.981Z,94324.13
2022-09-24T14:38:14.142Z,94324.16
2022-09-24T14:40:43.805Z,94329.91
2022-09-24T14:43:31.498Z,94336.66
2022-09-24T14:46:15.976Z,94332.69
2022-09-24T14:48:44.131Z,94339.13
2022-09-24T14:51:31.414Z,94337.78
2022-09-24T14:53:59.570Z,94355.56
2022-09-24T14:56:33.888Z,94315.34
2022-09-24T14:59:00.858Z,94323.91
2022-09-24T15:01:33.885Z,94333.06
2022-09-24T15:04:04.046Z,94331.41
2022-09-24T15:06:36.694Z,94334.28
2022-09-24T15:09:03.467Z,94325.06
2022-09-24T15:11:34.519Z,94326.56
2022-09-24T15:14:13.750Z,94333.31
2022-09-24T15:16:40.755Z,94329.41
2022-09-24T15:19:07.415Z,94337.69
2022-09-24T15:21:34.718Z,94317.75
2022-09-24T15:24:01.686Z,94329.31
2022-09-24T15:26:31.051Z,94323.94
2022-09-24T15:28:58.958Z,94329.75
2022-09-24T15:31:26.202Z,94313.94
2022-09-24T15:33:53.085Z,94326.75
2022-09-24T15:36:21.253Z,94319.34
2022-09-24T15:38:52.515Z,94312.75
2022-09-24T15:41:22.671Z,94311.28
2022-09-24T15:43:49.374Z,94319.69
2022-09-24T15:46:16.309Z,94293.59
2022-09-24T15:48:44.414Z,94295.84
2022-09-24T15:51:21.670Z,94299.41
2022-09-24T15:53:50.145Z,94307.84
2022-09-24T15:56:17.387Z,94291.63
2022-09-24T15:58:44.119Z,94290.53
2022-09-24T16:01:17.949Z,94302.44
2022-09-24T16:03:45.057Z,94295.94
2022-09-24T16:06:14.175Z,94300.88
2022-09-24T16:08:42.408Z,94292.22
2022-09-24T16:11:09.697Z,94302.22
2022-09-24T16:13:36.729Z,94285.75
2022-09-24T16:16:06.841Z,94277.63
2022-09-24T16:18:33.856Z,94281.75
2022-09-24T16:21:04.260Z,94288.13
2022-09-24T16:23:30.962Z,94306.03
2022-09-24T16:25:59.431Z,94306.97
2022-09-24T16:28:27.428Z,94309.59
2022-09-24T16:30:54.282Z,94308.28
2022-09-24T16:33:21.522Z,94292.81
2022-09-24T16:35:48.498Z,94300.91
2022-09-24T16:38:20.264Z,94306.31
2022-09-24T16:40:49.249Z,94309.06
2022-09-24T16:43:16.128Z,94306.63
2022-09-24T16:45:42.917Z,94308.75
2022-09-24T16:48:11.596Z,94315.66
2022-09-24T16:50:39.208Z,94313.91
2022-09-24T16:53:05.911Z,94300.78
2022-09-24T16:55:33.009Z,94285.19
2022-09-24T16:58:00.547Z,94291.63
2022-09-24T17:00:27.627Z,94314.97
2022-09-24T17:02:54.600Z,94309.81
2022-09-24T17:05:21.412Z,94314.22
2022-09-24T17:07:48.086Z,94322.06
2022-09-24T17:10:15.655Z,94293.88
2022-09-24T17:12:48.230Z,94308.28
2022-09-24T17:15:19.347Z,94326.28
2022-09-24T17:17:50.133Z,94322.97
2022-09-24T17:20:18.184Z,94278.97
2022-09-24T17:22:48.206Z,94271.38
2022-09-24T17:25:15.284Z,94289.22
2022-09-24T17:27:45.125Z,94311.00
2022-09-24T17:30:12.439Z,94331.34
2022-09-24T17:32:39.584Z,94321.38
2022-09-24T17:35:07.957Z,94328.53
2022-09-24T17:37:34.783Z,94319.81
2022-09-24T17:40:01.822Z,94332.31
2022-09-24T17:42:29.039Z,94316.59
2022-09-24T17:44:55.944Z,94340.13
2022-09-24T17:47:22.669Z,94326.38
2022-09-24T17:49:49.494Z,94327.75
2022-09-24T17:52:16.702Z,94323.13
2022-09-24T17:54:44.311Z,94330.09
2022-09-24T17:57:11.018Z,94341.78
2022-09-24T17:59:37.811Z,94334.72
2022-09-24T18:02:06.742Z,94340.22
2022-09-24T18:04:38.311Z,94336.38
2022-09-24T18:07:05.184Z,94335.59
2022-09-24T18:09:31.881Z,94338.44
2022-09-24T18:11:59.371Z,94343.19
2022-09-24T18:14:26.260Z,94330.88
2022-09-24T18:16:53.314Z,94336.47
2022-09-24T18:19:20.191Z,94335.03
2022-09-24T18:21:49.390Z,94319.56
2022-09-24T18:24:16.674Z,94330.78
2022-09-24T18:26:43.981Z,94327.03
2022-09-24T18:29:16.093Z,94324.97
2022-09-24T18:31:44.933Z,94324.69
2022-09-24T18:34:14.968Z,94320.13
2022-09-24T18:36:43.881Z,94319.94
2022-09-24T18:39:13.627Z,94322.84
2022-09-24T18:41:41.586Z,94318.63
2022-09-24T18:44:09.411Z,94305.13
2022-09-24T18:46:36.202Z,94319.34
2022-09-24T18:49:03.290Z,94324.31
2022-09-24T18:51:32.792Z,94318.50
2022-09-24T18:54:03.158Z,94334.78
2022-09-24T18:56:31.369Z,94330.16
2022-09-24T18:59:00.460Z,94320.88
2022-09-24T19:01:28.856Z,94343.91
2022-09-24T19:03:56.044Z,94328.09
2022-09-24T19:06:23.142Z,94323.09
2022-09-24T19:08:50.414Z,94332.81
2022-09-24T19:11:17.546Z,94350.81
2022-09-24T19:13:49.525Z,94345.28
2022-09-24T19:16:18.268Z,94344.91
2022-09-24T19:18:45.735Z,94336.19
2022-09-24T19:21:14.404Z,94334.31
2022-09-24T19:23:49.609Z,94327.19
2022-09-24T19:26:38.116Z,94332.69
2022-09-24T19:29:05.351Z,94335.13
2022-09-24T19:31:38.808Z,94349.28
2022-09-24T19:34:07.547Z,94353.84
2022-09-24T19:36:45.714Z,94348.31
2022-09-24T19:39:15.575Z,94346.50
2022-09-24T19:41:43.600Z,94355.47
2022-09-24T19:44:11.565Z,94348.44
2022-09-24T19:46:39.116Z,94360.72
2022-09-24T19:49:06.334Z,94342.94
2022-09-24T19:51:34.221Z,94326.59
2022-09-24T19:54:03.749Z,94341.28
2022-09-24T19:56:32.003Z,94342.94
2022-09-24T19:59:00.738Z,94349.63
2022-09-24T20:01:30.812Z,94352.84
2022-09-24T20:03:59.701Z,94359.94
2022-09-24T20:06:31.328Z,94338.72
2022-09-24T20:08:59.651Z,94358.50
2022-09-24T20:11:27.295Z,94326.75
2022-09-24T20:13:56.374Z,94347.44
2022-09-24T20:16:26.667Z,94342.59
2022-09-24T20:18:57.463Z,94341.03
2022-09-24T20:21:32.521Z,94340.41
2022-09-24T20:24:01.295Z,94344.78
2022-09-24T20:26:46.679Z,94337.53
2022-09-24T20:29:14.635Z,94352.78
2022-09-24T20:31:45.218Z,94342.25
2022-09-24T20:34:11.957Z,94351.41
2022-09-24T20:36:38.867Z,94345.31
2022-09-24T20:39:05.649Z,94346.13
2022-09-24T20:41:32.311Z,94337.66
2022-09-24T20:43:59.113Z,94329.34
2022-09-24T20:46:28.740Z,94337.38
2022-09-24T20:48:59.067Z,94330.25
2022-09-24T20:51:28.249Z,94331.69
2022-09-24T20:53:55.034Z,94345.22
2022-09-24T20:56:22.186Z,94345.63
2022-09-24T20:58:50.335Z,94348.84
2022-09-24T21:01:17.704Z,94344.16
2022-09-24T21:03:45.861Z,94334.66
2022-09-24T21:06:15.171Z,94344.91
2022-09-24T21:08:44.238Z,94336.22
2022-09-24T21:11:20.541Z,94329.63
2022-09-24T21:13:50.896Z,94331.84
2022-09-24T21:16:23.541Z,94343.00
2022-09-24T21:18:51.040Z,94340.97
2022-09-24T21:21:20.263Z,94337.25
2022-09-24T21:23:50.423Z,94319.75
2022-09-24T21:26:23.228Z,94328.97
2022-09-24T21:28:52.558Z,94330.28
2022-09-24T21:31:22.172Z,94340.13
2022-09-24T21:33:52.646Z,94346.66
2022-09-24T21:36:24.480Z,94328.97
2022-09-24T21:38:55.684Z,94339.91
2022-09-24T21:41:30.233Z,94328.78
2022-09-24T21:43:57.842Z,94332.16
2022-09-24T21:46:26.819Z,94334.41
2022-09-24T21:48:54.955Z,94339.81
2022-09-24T21:51:22.426Z,94344.88
2022-09-24T21:53:53.832Z,94353.16
2022-09-24T21:56:21.477Z,94334.34
2022-09-24T21:58:49.769Z,94343.63
2022-09-24T22:01:25.674Z,94354.31
2022-09-24T22:03:55.315Z,94334.81
2022-09-24T22:06:23.589Z,94347.63
2022-09-24T22:08:51.318Z,94349.53
2022-09-24T22:11:19.125Z,94334.28
2022-09-24T22:13:46.211Z,94328.38
2022-09-24T22:16:12.938Z,94325.09
2022-09-24T22:18:40.738Z,94320.75
2022-09-24T22:21:13.104Z,94333.19
2022-09-24T22:23:41.199Z,94328.63
2022-09-24T22:26:09.495Z,94328.38
2022-09-24T22:28:37.976Z,94322.00
2022-09-24T22:31:11.048Z,94328.72
2022-09-24T22:33:56.538Z,94304.63
2022-09-24T22:36:23.638Z,94315.09
2022-09-24T22:38:54.910Z,94300.41
2022-09-24T22:41:21.671Z,94279.22
2022-09-24T22:43:48.541Z,94303.91
2022-09-24T22:46:16.509Z,94312.31
2022-09-24T22:48:43.684Z,94322.78
2022-09-24T22:51:10.408Z,94297.53
2022-09-24T22:53:39.223Z,94297.66
2022-09-24T22:56:13.706Z,94313.88
2022-09-24T22:58:43.941Z,94320.50
2022-09-24T23:01:13.849Z,94313.41
2022-09-24T23:03:41.110Z,94291.84
2022-09-24T23:06:08.900Z,94309.38
2022-09-24T23:08:36.749Z,94321.22
2022-09-24T23:11:12.256Z,94317.38
2022-09-24T23:13:41.900Z,94310.16
2022-09-24T23:16:09.064Z,94315.66
2022-09-24T23:18:37.039Z,94303.56
2022-09-24T23:21:05.391Z,94324.72
2022-09-24T23:23:32.477Z,94311.25
2022-09-24T23:26:08.012Z,94318.31
2022-09-24T23:28:35.546Z,94317.47
2022-09-24T23:31:03.267Z,94320.66
2022-09-24T23:33:32.009Z,94283.84
2022-09-24T23:35:59.025Z,94302.09
2022-09-24T23:38:26.149Z,94314.69
2022-09-24T23:40:52.914Z,94294.31
2022-09-24T23:43:20.541Z,94302.78
2022-09-24T23:45:47.779Z,94310.91
2022-09-24T23:48:15.605Z,94318.75
2022-09-24T23:50:44.446Z,94296.91
2022-09-24T23:53:12.469Z,94317.06
2022-09-24T23:55:40.600Z,94339.91
2022-09-24T23:58:07.552Z,94321.63
